Time;durP1;ratioP1;P1;durP2;ratioP2;P2;SDS_P1;SDS_P2;PMS_P1;PMS_P2;Temp;Humidity;BMP_temperature;BMP_pressure;BME280_temperature;BME280_humidity;BME280_pressure;Samples;Min_cycle;Max_cycle;Signal;HPM_P1;HPM_P2
2022/12/09 05:36:11;;;;;;;43.53;19.83;;;-2.50;99.90;;;;;;7638279;19;20919;-73
2022/12/09 05:38:44;;;;;;;39.78;19.63;;;-2.50;99.90;;;;;;7636446;19;20014;-74
2022/12/09 05:41:18;;;;;;;42.05;22.02;;;-2.50;99.90;;;;;;7628258;19;20489;-74
2022/12/09 05:43:50;;;;;;;41.72;22.15;;;-2.40;99.90;;;;;;7625783;19;20090;-74
2022/12/09 05:46:23;;;;;;;45.65;22.95;;;-2.40;99.90;;;;;;7623678;19;20140;-73
2022/12/09 05:48:56;;;;;;;48.38;25.85;;;-2.40;99.90;;;;;;7632299;19;20018;-74
2022/12/09 05:51:29;;;;;;;46.72;25.30;;;-2.30;99.90;;;;;;7612622;19;20510;-74
2022/12/09 05:54:02;;;;;;;;;;;-2.20;99.90;;;;;;7618495;19;20030;-74
2022/12/09 05:56:35;;;;;;;41.77;21.97;;;-2.10;99.90;;;;;;7620854;19;21541;-74
2022/12/09 05:59:09;;;;;;;37.70;19.60;;;-2.00;99.90;;;;;;7619170;19;20395;-73
2022/12/09 06:01:41;;;;;;;;;;;-1.90;99.90;;;;;;7619464;19;20445;-74
2022/12/09 06:04:14;;;;;;;38.17;20.63;;;-1.90;99.90;;;;;;7593085;19;19960;-73
2022/12/09 06:06:46;;;;;;;34.78;18.67;;;-1.80;99.90;;;;;;7618166;19;20562;-73
2022/12/09 06:09:20;;;;;;;35.97;18.15;;;-1.80;99.90;;;;;;7618335;19;21453;-73
2022/12/09 06:11:53;;;;;;;36.55;19.17;;;-1.70;99.90;;;;;;7610830;19;20335;-73
2022/12/09 06:14:25;;;;;;;39.95;20.45;;;-1.70;99.90;;;;;;7594491;19;20025;-74
2022/12/09 06:16:57;;;;;;;37.38;19.67;;;-1.70;99.90;;;;;;7595772;19;22187;-74
2022/12/09 06:19:30;;;;;;;42.10;20.33;;;-1.60;99.90;;;;;;7600165;19;20434;-75
2022/12/09 06:22:03;;;;;;;34.63;19.55;;;-1.60;99.90;;;;;;7612189;19;20070;-73
2022/12/09 06:24:35;;;;;;;38.30;20.13;;;-1.50;99.90;;;;;;7607211;19;20541;-73
2022/12/09 06:27:08;;;;;;;39.58;19.88;;;-1.50;99.90;;;;;;7620051;19;20029;-73
2022/12/09 06:29:40;;;;;;;33.47;19.05;;;-1.50;99.90;;;;;;7570665;19;20050;-73
2022/12/09 06:32:13;;;;;;;40.55;20.00;;;-1.40;99.90;;;;;;7605622;19;20022;-76
2022/12/09 06:34:45;;;;;;;40.85;19.48;;;-1.40;99.90;;;;;;7599259;19;20806;-76
2022/12/09 06:37:18;;;;;;;39.83;18.52;;;-1.40;99.90;;;;;;7604586;19;20465;-76
2022/12/09 06:39:50;;;;;;;37.03;19.45;;;-1.40;99.90;;;;;;7606411;19;20034;-75
2022/12/09 06:42:22;;;;;;;37.80;18.92;;;-1.30;99.90;;;;;;7623550;19;20022;-74
2022/12/09 06:44:55;;;;;;;43.80;21.67;;;-1.30;99.90;;;;;;7645648;19;20044;-74
2022/12/09 06:47:27;;;;;;;41.60;21.08;;;-1.20;99.90;;;;;;7606894;19;20014;-74
2022/12/09 06:50:00;;;;;;;42.20;22.03;;;-1.20;99.90;;;;;;7617060;19;20039;-74
2022/12/09 06:52:38;;;;;;;44.42;22.80;;;-1.20;99.90;;;;;;7601992;19;20282;-76
2022/12/09 06:55:11;;;;;;;44.65;22.20;;;-1.20;99.90;;;;;;7575385;19;20105;-75
2022/12/09 06:57:44;;;;;;;;;;;-1.20;99.90;;;;;;7593849;19;20051;-75
2022/12/09 07:00:17;;;;;;;43.50;21.45;;;-1.20;99.90;;;;;;7601745;19;19923;-75
2022/12/09 07:02:49;;;;;;;46.85;22.70;;;-1.10;99.90;;;;;;7581664;19;20020;-75
2022/12/09 07:05:23;;;;;;;45.95;22.73;;;-1.20;99.90;;;;;;7595534;19;20026;-76
2022/12/09 07:07:56;;;;;;;40.03;20.10;;;-1.10;99.90;;;;;;7600440;19;20015;-75
2022/12/09 07:10:29;;;;;;;50.83;25.55;;;-1.10;99.90;;;;;;7610198;19;20010;-75
2022/12/09 07:13:02;;;;;;;48.97;24.67;;;-1.10;99.90;;;;;;7603773;19;20018;-75
2022/12/09 07:15:35;;;;;;;48.67;22.90;;;-1.10;99.90;;;;;;7587801;19;20022;-75
2022/12/09 07:18:07;;;;;;;48.65;22.42;;;-1.10;99.90;;;;;;7609144;19;20463;-76
2022/12/09 07:20:39;;;;;;;45.05;23.58;;;-1.10;99.90;;;;;;7585258;19;20050;-76
2022/12/09 07:23:12;;;;;;;45.05;22.20;;;-1.10;99.90;;;;;;7598347;19;20007;-76
2022/12/09 07:25:55;;;;;;;44.55;21.95;;;-1.10;99.90;;;;;;7599636;19;20029;-75
2022/12/09 07:28:28;;;;;;;45.10;22.23;;;-1.00;99.90;;;;;;7587631;19;20101;-74
2022/12/09 07:31:01;;;;;;;49.58;23.38;;;-1.00;99.90;;;;;;7586629;19;20021;-75
2022/12/09 07:33:34;;;;;;;40.63;21.83;;;-0.90;99.90;;;;;;7582748;19;20274;-74
2022/12/09 07:36:06;;;;;;;52.45;26.88;;;-0.90;99.90;;;;;;7573317;19;20010;-72
2022/12/09 07:38:40;;;;;;;54.95;28.77;;;-0.80;99.90;;;;;;7581319;19;20010;-73
2022/12/09 07:41:16;;;;;;;60.92;30.38;;;-0.80;99.90;;;;;;7579603;19;21405;-76
2022/12/09 07:43:49;;;;;;;66.85;34.92;;;-0.80;99.90;;;;;;7582904;19;20018;-75
2022/12/09 07:46:26;;;;;;;51.47;26.17;;;-0.80;99.90;;;;;;7580459;19;20010;-73
2022/12/09 07:49:01;;;;;;;46.63;26.40;;;-0.70;99.90;;;;;;7566124;19;20022;-76
2022/12/09 07:51:34;;;;;;;49.85;24.75;;;-0.70;99.90;;;;;;7603466;19;20011;-75
2022/12/09 07:54:11;;;;;;;44.95;23.10;;;-0.70;99.90;;;;;;7611537;19;20006;-75
2022/12/09 07:56:44;;;;;;;56.95;28.77;;;-0.70;99.90;;;;;;7594365;19;20018;-74
2022/12/09 07:59:16;;;;;;;39.97;20.70;;;-0.60;99.90;;;;;;7583107;19;20761;-74
2022/12/09 08:01:48;;;;;;;65.28;33.40;;;-0.70;99.90;;;;;;7596404;19;20510;-74
2022/12/09 08:04:21;;;;;;;51.45;23.63;;;-0.60;99.90;;;;;;7601676;19;20248;-75
2022/12/09 08:06:54;;;;;;;68.97;34.75;;;-0.60;99.90;;;;;;7596979;19;20445;-75
2022/12/09 08:09:27;;;;;;;41.90;21.80;;;-0.60;99.90;;;;;;7590976;19;20074;-74
2022/12/09 08:11:59;;;;;;;33.30;18.98;;;-0.60;99.90;;;;;;7593917;19;20025;-74
2022/12/09 08:14:31;;;;;;;40.15;20.75;;;-0.50;99.90;;;;;;7572906;19;20121;-77
2022/12/09 08:17:04;;;;;;;35.92;19.75;;;-0.60;99.90;;;;;;7601043;19;20058;-78
2022/12/09 08:19:36;;;;;;;51.97;25.98;;;-0.50;99.90;;;;;;7582200;19;20026;-78
2022/12/09 08:22:09;;;;;;;42.85;20.92;;;-0.50;99.90;;;;;;7580040;19;20369;-77
2022/12/09 08:24:41;;;;;;;40.85;21.10;;;-0.40;99.90;;;;;;7576926;19;20018;-78
2022/12/09 08:27:13;;;;;;;43.83;22.48;;;-0.40;99.90;;;;;;7576980;19;20014;-78
2022/12/09 08:29:46;;;;;;;47.13;23.48;;;-0.40;99.90;;;;;;7586921;19;20014;-78
2022/12/09 08:32:18;;;;;;;44.77;23.03;;;-0.30;99.90;;;;;;7594830;19;20785;-76
2022/12/09 08:34:51;;;;;;;40.55;22.67;;;-0.30;99.90;;;;;;7601691;19;20026;-78
2022/12/09 08:37:24;;;;;;;54.65;26.25;;;-0.30;99.90;;;;;;7594016;19;20058;-79
2022/12/09 08:39:56;;;;;;;59.83;30.58;;;-0.30;99.90;;;;;;7582591;19;20017;-79
2022/12/09 08:42:29;;;;;;;75.63;41.88;;;-0.30;99.90;;;;;;7595995;19;20814;-78
2022/12/09 08:45:01;;;;;;;51.53;29.77;;;-0.20;99.90;;;;;;7601106;19;20466;-78
2022/12/09 08:47:34;;;;;;;45.45;24.75;;;-0.20;99.90;;;;;;7600722;19;21414;-78
2022/12/09 08:50:07;;;;;;;87.22;44.65;;;-0.20;99.90;;;;;;7598262;19;20018;-78
2022/12/09 08:52:41;;;;;;;61.30;30.88;;;-0.20;99.90;;;;;;7603460;19;20015;-78
2022/12/09 08:55:13;;;;;;;71.40;34.47;;;-0.20;99.90;;;;;;7602910;19;20363;-78
2022/12/09 08:57:46;;;;;;;67.38;32.70;;;-0.20;99.90;;;;;;7616467;19;20029;-80
2022/12/09 09:00:19;;;;;;;48.88;25.33;;;-0.20;99.90;;;;;;7589631;19;20034;-78
2022/12/09 09:02:51;;;;;;;63.65;32.72;;;-0.20;99.90;;;;;;7601540;19;20022;-78
2022/12/09 09:05:23;;;;;;;78.53;35.40;;;-0.10;99.90;;;;;;7594522;19;20117;-77
2022/12/09 09:07:56;;;;;;;48.17;24.75;;;-0.10;99.90;;;;;;7592766;19;21412;-77
2022/12/09 09:10:29;;;;;;;49.63;24.80;;;-0.10;99.90;;;;;;7578204;19;20026;-78
2022/12/09 09:13:02;;;;;;;50.80;24.08;;;-0.10;99.90;;;;;;7568663;19;20021;-77
2022/12/09 09:15:38;;;;;;;82.30;39.67;;;-0.10;99.90;;;;;;7565369;19;20491;-78
2022/12/09 10:46:17;;;;;;;110.88;47.15;;;-0.50;99.90;;;;;;7616045;19;20366;-75
2022/12/09 10:48:57;;;;;;;95.25;36.67;;;-0.50;99.90;;;;;;7629202;19;20018;-74
2022/12/09 10:51:33;;;;;;;89.10;38.28;;;-0.40;99.90;;;;;;7631997;19;20439;-75
2022/12/09 10:54:29;;;;;;;86.15;36.38;;;-0.30;99.90;;;;;;7633079;19;20101;-77
2022/12/09 10:57:10;;;;;;;77.30;34.60;;;-0.30;99.90;;;;;;7619202;19;20042;-75
2022/12/09 11:00:10;;;;;;;92.63;37.20;;;-0.20;99.90;;;;;;7613069;19;20018;-75
2022/12/09 11:02:51;;;;;;;74.90;34.28;;;-0.10;99.90;;;;;;7610043;19;20025;-75
2022/12/09 11:05:30;;;;;;;81.85;34.17;;;0.00;99.90;;;;;;7620002;19;20015;-76
2022/12/09 11:08:03;;;;;;;86.55;35.00;;;0.00;99.90;;;;;;7623475;19;20018;-75
2022/12/09 11:10:36;;;;;;;80.40;35.72;;;0.10;99.90;;;;;;7635319;19;20078;-75
2022/12/09 11:13:16;;;;;;;86.93;34.92;;;0.10;99.90;;;;;;7616457;19;20038;-75
2022/12/09 11:15:59;;;;;;;85.55;35.58;;;0.10;99.90;;;;;;7613804;19;20852;-75
2022/12/09 11:18:45;;;;;;;83.13;35.60;;;0.20;99.90;;;;;;7623175;19;20108;-75
2022/12/09 11:21:35;;;;;;;84.85;34.80;;;0.20;99.90;;;;;;7629562;19;20010;-75
2022/12/09 11:24:20;;;;;;;77.22;33.92;;;0.30;99.90;;;;;;7611445;19;20018;-75
2022/12/09 11:26:53;;;;;;;79.68;33.83;;;0.30;99.90;;;;;;7620257;19;20017;-75
2022/12/09 11:29:26;;;;;;;75.83;34.13;;;0.40;99.90;;;;;;7625766;19;20013;-75
2022/12/09 11:31:58;;;;;;;82.72;34.25;;;0.40;99.90;;;;;;7617729;19;20011;-75
2022/12/09 11:34:31;;;;;;;82.07;32.92;;;0.50;99.90;;;;;;7622195;19;20063;-75
2022/12/09 11:37:03;;;;;;;74.93;31.10;;;0.50;99.90;;;;;;7618586;19;20107;-75
2022/12/09 11:39:37;;;;;;;81.35;34.15;;;0.50;99.90;;;;;;7612834;19;20481;-76
2022/12/09 11:42:17;;;;;;;;;;;0.50;99.90;;;;;;7616252;19;20061;-75
2022/12/09 14:33:53;;;;;;;118.10;44.75;;;0.20;99.90;;;;;;7591767;19;20372;-72
2022/12/09 14:36:31;;;;;;;119.20;48.30;;;0.20;99.90;;;;;;7607279;19;20021;-71
2022/12/09 14:39:20;;;;;;;115.78;45.95;;;0.30;99.90;;;;;;7615353;19;20010;-73
2022/12/09 14:42:08;;;;;;;116.53;46.45;;;0.30;99.90;;;;;;7605936;19;20014;-73
2022/12/09 14:44:55;;;;;;;129.85;55.65;;;0.40;99.90;;;;;;7626217;19;20854;-72
2022/12/09 14:47:37;;;;;;;138.02;61.70;;;0.50;99.90;;;;;;7632509;19;20022;-71
2022/12/09 14:50:18;;;;;;;137.43;59.22;;;0.60;99.90;;;;;;7637352;19;20018;-74
2022/12/09 14:53:00;;;;;;;122.13;49.00;;;0.70;99.90;;;;;;7635719;19;20019;-74
2022/12/09 14:55:38;;;;;;;103.43;42.22;;;0.80;99.90;;;;;;7636178;19;21451;-73
2022/12/09 14:58:19;;;;;;;108.63;45.63;;;0.80;99.90;;;;;;7638746;19;20014;-73
2022/12/09 15:01:02;;;;;;;133.88;50.10;;;0.80;99.90;;;;;;7634245;19;20018;-74
2022/12/09 15:03:34;;;;;;;78.82;32.72;;;0.90;99.90;;;;;;7642194;19;20021;-73
2022/12/09 15:06:18;;;;;;;181.73;76.43;;;0.90;99.90;;;;;;7645131;19;20056;-71
2022/12/09 15:08:54;;;;;;;157.45;62.42;;;1.00;99.90;;;;;;7634725;19;20067;-71
2022/12/09 15:11:33;;;;;;;108.40;44.85;;;1.00;99.90;;;;;;7639626;19;20049;-73
2022/12/09 15:16:58;;;;;;;90.93;40.20;;;1.00;99.90;;;;;;7635098;19;20090;-73
2022/12/09 15:19:30;;;;;;;102.47;42.38;;;1.00;99.90;;;;;;7634723;19;20026;-73
2022/12/09 15:22:27;;;;;;;86.22;37.08;;;1.00;99.90;;;;;;7641907;19;20018;-71
2022/12/09 15:25:01;;;;;;;101.28;44.70;;;1.10;99.90;;;;;;7626902;19;20027;-73
2022/12/09 15:27:34;;;;;;;103.97;45.95;;;1.00;99.90;;;;;;7629758;19;20020;-73
2022/12/09 15:30:23;;;;;;;99.95;42.00;;;1.00;99.90;;;;;;7628248;19;20018;-73
2022/12/09 15:32:55;;;;;;;96.00;42.08;;;1.10;99.90;;;;;;7615910;19;20010;-72
2022/12/09 15:35:31;;;;;;;93.55;40.03;;;1.00;99.90;;;;;;7604652;19;20010;-72
2022/12/09 15:38:07;;;;;;;116.22;51.53;;;1.10;99.90;;;;;;7613312;19;20014;-73
2022/12/09 15:42:05;;;;;;;101.70;45.33;;;1.10;99.90;;;;;;7600423;19;20134;-72
2022/12/09 15:43:34;;;;;;;;;;;1.10;99.90;;;;;;7566547;19;20019;-70
2022/12/09 15:46:08;;;;;;;105.60;41.88;;;1.10;99.90;;;;;;7564378;19;20305;-73
2022/12/09 15:48:47;;;;;;;105.57;43.92;;;1.20;99.90;;;;;;7578518;19;20397;-68
2022/12/09 15:51:22;;;;;;;94.13;39.08;;;1.20;99.90;;;;;;7573415;19;20026;-70
2022/12/09 15:54:01;;;;;;;99.57;40.95;;;1.20;99.90;;;;;;7567667;19;20014;-69
2022/12/09 15:56:57;;;;;;;105.65;44.78;;;1.10;99.90;;;;;;7597889;19;20236;-69
2022/12/09 15:59:33;;;;;;;114.45;45.58;;;1.10;99.90;;;;;;7579955;19;22240;-70
2022/12/09 16:02:08;;;;;;;105.63;44.03;;;1.20;99.90;;;;;;7566195;19;20477;-69
2022/12/09 16:04:44;;;;;;;107.10;45.95;;;1.20;99.90;;;;;;7600590;19;20030;-71
2022/12/09 16:07:18;;;;;;;98.88;41.63;;;1.20;99.90;;;;;;7606009;19;20029;-69
2022/12/09 16:10:09;;;;;;;106.25;42.15;;;1.20;99.90;;;;;;7597798;19;20030;-69
2022/12/09 16:12:42;;;;;;;102.88;41.35;;;1.20;99.90;;;;;;7600569;19;20379;-69
2022/12/09 16:15:41;;;;;;;99.32;40.40;;;1.20;99.90;;;;;;7608721;19;20833;-68
2022/12/09 16:18:31;;;;;;;103.45;41.15;;;1.20;99.90;;;;;;7574353;19;22336;-69
2022/12/09 16:21:32;;;;;;;123.43;45.10;;;1.20;99.90;;;;;;7591528;19;21431;-69
2022/12/09 16:24:11;;;;;;;110.78;43.03;;;1.20;99.90;;;;;;7604096;19;21891;-70
2022/12/09 16:26:46;;;;;;;133.20;47.28;;;1.10;99.90;;;;;;7603047;19;20019;-69
2022/12/09 16:29:31;;;;;;;124.10;46.10;;;1.10;99.90;;;;;;7600542;19;20014;-71
2022/12/09 16:32:18;;;;;;;129.38;47.47;;;1.00;99.90;;;;;;7597961;19;20006;-68
2022/12/09 16:34:56;;;;;;;118.72;45.03;;;1.10;99.90;;;;;;7600711;19;20120;-70
2022/12/09 16:37:42;;;;;;;128.77;48.00;;;1.10;99.90;;;;;;7609636;19;20022;-68
2022/12/09 16:40:40;;;;;;;154.20;61.60;;;1.10;99.90;;;;;;7599463;19;20014;-68
2022/12/09 16:43:15;;;;;;;119.90;50.20;;;1.10;99.90;;;;;;7595702;19;20024;-68
2022/12/09 16:45:52;;;;;;;138.23;47.33;;;1.20;99.90;;;;;;7606058;19;20106;-69
2022/12/09 16:48:26;;;;;;;143.50;48.80;;;1.10;99.90;;;;;;7594465;19;20014;-70
2022/12/09 16:51:12;;;;;;;115.57;42.88;;;1.10;99.90;;;;;;7565920;19;20011;-68
2022/12/09 16:53:47;;;;;;;116.32;45.60;;;1.10;99.90;;;;;;7586591;19;20019;-69
2022/12/09 16:56:23;;;;;;;120.47;45.92;;;1.10;99.90;;;;;;7609372;19;20105;-69
2022/12/09 16:58:56;;;;;;;121.65;45.13;;;1.20;99.90;;;;;;7607899;19;20032;-68
2022/12/09 17:01:33;;;;;;;120.05;47.92;;;1.20;99.90;;;;;;7603352;19;20352;-68
2022/12/09 17:04:13;;;;;;;108.78;45.13;;;1.20;99.90;;;;;;7609007;19;20022;-69
2022/12/09 17:06:45;;;;;;;139.77;55.08;;;1.20;99.90;;;;;;7603503;19;20479;-70
2022/12/09 17:09:18;;;;;;;133.55;53.40;;;1.20;99.90;;;;;;7589709;19;20026;-68
2022/12/09 17:11:50;;;;;;;135.27;53.28;;;1.20;99.90;;;;;;7601134;19;20858;-68
2022/12/09 17:14:22;;;;;;;120.80;49.42;;;1.20;99.90;;;;;;7598779;19;20022;-68
2022/12/09 17:16:55;;;;;;;124.40;50.03;;;1.20;99.90;;;;;;7602138;19;20045;-68
2022/12/09 17:19:27;;;;;;;147.57;57.30;;;1.20;99.90;;;;;;7598729;19;20559;-68
2022/12/09 17:21:59;;;;;;;138.65;54.70;;;1.20;99.90;;;;;;7602313;19;20015;-68
2022/12/09 17:24:31;;;;;;;131.77;53.72;;;1.20;99.90;;;;;;7604130;19;20043;-68
2022/12/09 17:27:03;;;;;;;122.13;50.20;;;1.20;99.90;;;;;;7568929;19;20021;-70
2022/12/09 17:29:36;;;;;;;140.43;55.30;;;1.20;99.90;;;;;;7573868;19;20489;-70
2022/12/09 17:32:08;;;;;;;122.78;50.63;;;1.20;99.90;;;;;;7599219;19;20671;-70
2022/12/09 17:34:40;;;;;;;120.32;49.95;;;1.30;99.90;;;;;;7588092;19;20492;-70
2022/12/09 17:37:12;;;;;;;125.88;51.70;;;1.20;99.90;;;;;;7588982;19;20017;-68
2022/12/09 17:39:47;;;;;;;122.22;50.95;;;1.30;99.90;;;;;;7607586;19;20049;-70
2022/12/09 17:42:26;;;;;;;127.25;49.88;;;1.20;99.90;;;;;;7604787;19;20089;-70
2022/12/09 17:44:59;;;;;;;125.65;51.65;;;1.30;99.90;;;;;;7593754;19;20031;-67
2022/12/09 17:47:32;;;;;;;128.10;54.85;;;1.20;99.90;;;;;;7606815;19;20661;-68
2022/12/09 17:50:05;;;;;;;178.63;79.73;;;1.20;99.90;;;;;;7595842;19;20018;-68
2022/12/09 17:52:38;;;;;;;121.60;49.97;;;1.30;99.90;;;;;;7603753;19;20086;-70
2022/12/09 17:55:11;;;;;;;107.15;46.30;;;1.30;99.90;;;;;;7599462;19;20029;-69
2022/12/09 17:57:43;;;;;;;112.13;44.13;;;1.30;99.90;;;;;;7589068;19;21315;-70
2022/12/09 18:00:20;;;;;;;143.60;57.70;;;1.30;99.90;;;;;;7599989;19;20034;-69
2022/12/09 18:02:53;;;;;;;150.40;70.70;;;1.30;99.90;;;;;;7603495;19;20600;-70
2022/12/09 18:05:25;;;;;;;149.90;68.50;;;1.30;99.90;;;;;;7596132;19;20025;-69
2022/12/09 18:07:57;;;;;;;125.53;49.47;;;1.30;99.90;;;;;;7597486;19;20015;-70
2022/12/09 18:10:30;;;;;;;136.15;58.28;;;1.30;99.90;;;;;;7592218;19;21083;-69
2022/12/09 18:13:02;;;;;;;124.28;51.70;;;1.30;99.90;;;;;;7608504;19;20018;-70
2022/12/09 18:15:37;;;;;;;121.95;46.47;;;1.20;99.90;;;;;;7597555;19;20736;-67
2022/12/09 18:18:10;;;;;;;113.53;46.40;;;1.30;99.90;;;;;;7591027;19;20022;-68
2022/12/09 18:20:42;;;;;;;113.60;46.42;;;1.30;99.90;;;;;;7595410;19;20037;-68
2022/12/09 18:23:14;;;;;;;111.88;45.53;;;1.30;99.90;;;;;;7609551;19;20361;-67
2022/12/09 18:25:47;;;;;;;110.32;44.38;;;1.30;99.90;;;;;;7607201;19;20029;-67
2022/12/09 18:28:19;;;;;;;;;;;1.30;99.90;;;;;;7613806;19;20439;-69
2022/12/09 18:30:53;;;;;;;112.72;42.50;;;1.40;99.90;;;;;;7610521;19;19927;-67
2022/12/09 18:33:25;;;;;;;124.18;46.97;;;1.30;99.90;;;;;;7606559;19;20049;-70
2022/12/09 18:35:57;;;;;;;114.30;46.63;;;1.30;99.90;;;;;;7598161;19;20014;-70
2022/12/09 18:38:29;;;;;;;98.97;42.08;;;1.30;99.90;;;;;;7593770;19;20022;-68
2022/12/09 18:41:03;;;;;;;112.72;44.75;;;1.30;99.90;;;;;;7584290;19;20015;-69
2022/12/09 18:43:37;;;;;;;114.43;44.22;;;1.30;99.90;;;;;;7601888;19;20018;-68
2022/12/09 18:46:15;;;;;;;121.60;44.45;;;1.30;99.90;;;;;;7596297;19;20014;-71
2022/12/09 18:49:02;;;;;;;129.98;52.45;;;1.30;99.90;;;;;;7594131;19;20017;-68
2022/12/09 18:51:36;;;;;;;121.78;51.58;;;1.20;99.90;;;;;;7594903;19;20052;-69
2022/12/09 18:54:13;;;;;;;129.40;50.47;;;1.20;99.90;;;;;;7596274;19;20019;-70
2022/12/09 18:56:45;;;;;;;115.47;45.83;;;1.20;99.90;;;;;;7592978;19;20039;-68
2022/12/09 18:59:19;;;;;;;167.55;62.95;;;1.20;99.90;;;;;;7586773;19;20054;-69
2022/12/09 19:01:52;;;;;;;138.88;56.08;;;1.10;99.90;;;;;;7562110;19;20641;-68
2022/12/09 19:04:27;;;;;;;140.52;59.33;;;1.10;99.90;;;;;;7553124;19;20466;-68
2022/12/09 19:06:59;;;;;;;180.82;61.85;;;1.10;99.90;;;;;;7582264;19;20015;-69
2022/12/09 19:09:33;;;;;;;162.37;57.63;;;1.00;99.90;;;;;;7588346;19;20027;-69
2022/12/09 19:12:06;;;;;;;179.55;63.78;;;1.00;99.90;;;;;;7568296;19;20723;-68
2022/12/09 19:14:58;;;;;;;152.02;60.20;;;1.00;99.90;;;;;;7571735;19;20155;-69
2022/12/09 19:17:31;;;;;;;139.07;57.40;;;1.00;99.90;;;;;;7587237;19;20075;-69
2022/12/09 19:20:04;;;;;;;144.55;56.78;;;1.10;99.90;;;;;;7586977;19;20629;-68
2022/12/09 19:22:37;;;;;;;123.47;49.35;;;1.10;99.90;;;;;;7587357;19;20028;-69
2022/12/09 19:25:09;;;;;;;144.52;55.63;;;1.20;99.90;;;;;;7551317;19;20007;-69
2022/12/09 19:27:43;;;;;;;143.32;57.75;;;1.20;99.90;;;;;;7589634;19;20056;-68
2022/12/09 19:30:16;;;;;;;;;;;1.20;99.90;;;;;;7590561;19;20017;-68
2022/12/09 19:32:48;;;;;;;137.07;52.08;;;1.20;99.90;;;;;;7556991;19;21357;-68
2022/12/09 19:35:24;;;;;;;144.43;56.92;;;1.10;99.90;;;;;;7570813;19;20014;-69
2022/12/09 19:37:56;;;;;;;129.23;55.35;;;1.10;99.90;;;;;;7558945;19;20782;-68
2022/12/09 19:40:32;;;;;;;160.25;62.58;;;1.20;99.90;;;;;;7563522;19;20015;-69
2022/12/09 19:43:06;;;;;;;145.80;57.42;;;1.10;99.90;;;;;;7572656;19;20025;-69
2022/12/09 19:45:38;;;;;;;134.90;54.00;;;1.10;99.90;;;;;;7588019;19;20591;-68
2022/12/09 19:48:10;;;;;;;133.68;54.30;;;1.10;99.90;;;;;;7553428;19;20029;-68
2022/12/09 19:50:42;;;;;;;149.15;58.03;;;1.00;99.90;;;;;;7563826;19;20065;-68
2022/12/09 19:53:15;;;;;;;141.65;58.08;;;1.10;99.90;;;;;;7575712;19;20045;-68
2022/12/09 19:55:47;;;;;;;141.20;56.95;;;1.10;99.90;;;;;;7559805;19;20029;-68
2022/12/09 19:58:20;;;;;;;130.15;54.78;;;1.10;99.90;;;;;;7560320;19;20029;-68
2022/12/09 20:00:52;;;;;;;140.00;55.00;;;1.20;99.90;;;;;;7561826;19;20025;-70
2022/12/09 20:03:24;;;;;;;123.28;52.30;;;1.20;99.90;;;;;;7587472;19;20022;-71
2022/12/09 20:05:56;;;;;;;131.18;52.83;;;1.20;99.90;;;;;;7571408;19;20018;-70
2022/12/09 20:08:29;;;;;;;128.95;52.63;;;1.30;99.90;;;;;;7560108;19;20537;-70
2022/12/09 20:11:01;;;;;;;124.03;53.45;;;1.30;99.90;;;;;;7573239;19;20737;-70
2022/12/09 20:13:34;;;;;;;111.85;47.45;;;1.20;99.90;;;;;;7568791;19;20108;-70
2022/12/09 20:16:08;;;;;;;130.88;54.58;;;1.20;99.90;;;;;;7587704;19;20135;-70
2022/12/09 20:18:40;;;;;;;142.48;60.13;;;1.20;99.90;;;;;;7566911;19;20056;-68
2022/12/09 20:21:14;;;;;;;157.17;62.77;;;1.20;99.90;;;;;;7585990;19;20015;-69
2022/12/09 20:23:48;;;;;;;;;;;1.30;99.90;;;;;;7607101;19;20287;-69
2022/12/09 20:26:23;;;;;;;124.07;51.13;;;1.20;99.90;;;;;;7595930;19;19928;-71
2022/12/09 20:28:59;;;;;;;129.25;55.63;;;1.20;99.90;;;;;;7598729;19;20271;-68
2022/12/09 20:31:34;;;;;;;119.38;52.05;;;1.20;99.90;;;;;;7600946;19;20026;-68
2022/12/09 20:34:11;;;;;;;117.75;52.75;;;1.20;99.90;;;;;;7595000;19;20025;-68
2022/12/09 20:36:44;;;;;;;151.02;60.35;;;1.20;99.90;;;;;;7609566;19;20010;-69
2022/12/09 20:39:19;;;;;;;144.50;59.75;;;1.20;99.90;;;;;;7593296;19;20022;-68
2022/12/09 20:41:52;;;;;;;162.55;62.35;;;1.10;99.90;;;;;;7568641;19;20022;-68
2022/12/09 20:44:24;;;;;;;134.20;55.97;;;1.10;99.90;;;;;;7589971;19;20022;-70
2022/12/09 20:46:56;;;;;;;124.93;56.05;;;1.10;99.90;;;;;;7543657;19;20010;-69
2022/12/09 20:49:29;;;;;;;131.75;56.45;;;1.10;99.90;;;;;;7559532;19;20021;-70
2022/12/09 20:52:02;;;;;;;127.43;54.72;;;1.10;99.90;;;;;;7573452;19;20026;-67
2022/12/09 20:54:34;;;;;;;135.70;56.70;;;1.20;99.90;;;;;;7573828;19;20018;-69
2022/12/09 20:57:06;;;;;;;143.82;57.85;;;1.20;99.90;;;;;;7554487;19;20014;-70
2022/12/09 20:59:38;;;;;;;125.72;52.95;;;1.20;99.90;;;;;;7567135;19;20034;-70
2022/12/09 21:02:15;;;;;;;122.30;51.30;;;1.20;99.90;;;;;;7554796;19;20613;-70
2022/12/09 21:04:47;;;;;;;120.82;51.30;;;1.10;99.90;;;;;;7563166;19;21664;-70
2022/12/09 21:07:20;;;;;;;154.80;60.47;;;1.20;99.90;;;;;;7574036;19;20019;-70
2022/12/09 21:09:52;;;;;;;117.85;50.45;;;1.10;99.90;;;;;;7568188;19;20901;-70
2022/12/09 21:12:24;;;;;;;142.75;57.17;;;1.20;99.90;;;;;;7585469;19;20014;-70
2022/12/09 21:14:56;;;;;;;124.93;53.83;;;1.20;99.90;;;;;;7583581;19;20078;-70
2022/12/09 21:17:29;;;;;;;115.28;50.72;;;1.10;99.90;;;;;;7566701;19;20014;-70
